Time;durP1;ratioP1;P1;durP2;ratioP2;P2;SDS_P1;SDS_P2;PMS_P1;PMS_P2;Temp;Humidity;BMP_temperature;BMP_pressure;BME280_temperature;BME280_humidity;BME280_pressure;Samples;Min_cycle;Max_cycle;Signal;HPM_P1;HPM_P2
2024/01/31 00:00:29;;;;;;;;;11.25;8.50;;;;;10.93;50.62;103060.34;5058890;28;45534;-60
2024/01/31 00:02:55;;;;;;;;;11.50;9.75;;;;;10.91;50.66;103062.00;5059428;28;45260;-60
2024/01/31 00:05:21;;;;;;;;;13.25;9.75;;;;;10.90;50.67;103057.63;5058187;28;45588;-61
2024/01/31 00:07:48;;;;;;;;;9.25;7.00;;;;;10.79;50.57;103036.22;5058086;28;45342;-61
2024/01/31 00:10:17;;;;;;;;;6.25;6.25;;;;;10.94;50.99;103054.28;5058156;28;45368;-60
2024/01/31 00:12:43;;;;;;;;;8.50;7.00;;;;;10.92;50.70;103045.47;5058041;28;45442;-60
2024/01/31 00:15:10;;;;;;;;;9.50;8.25;;;;;10.92;50.88;103053.34;5043837;28;45568;-62
2024/01/31 00:17:36;;;;;;;;;6.50;6.25;;;;;10.92;51.11;103047.19;5039480;28;45439;-65
2024/01/31 00:20:02;;;;;;;;;12.50;7.75;;;;;10.87;50.44;103039.16;5058514;28;45267;-68
2024/01/31 00:22:28;;;;;;;;;10.00;8.50;;;;;10.89;50.75;103047.97;5057523;28;45957;-64
2024/01/31 00:24:53;;;;;;;;;7.75;7.75;;;;;10.72;50.86;103028.97;5057807;28;45853;-64
2024/01/31 00:27:19;;;;;;;;;9.50;8.50;;;;;10.86;50.28;103047.84;5057332;28;45463;-63
2024/01/31 00:29:45;;;;;;;;;8.50;6.50;;;;;10.80;50.65;103048.50;5055292;28;45458;-68
2024/01/31 00:32:10;;;;;;;;;10.75;8.50;;;;;10.74;51.23;103057.88;5057077;28;46148;-61
2024/01/31 00:34:36;;;;;;;;;8.00;6.50;;;;;10.66;51.45;103041.84;5056977;28;45269;-61
2024/01/31 00:37:01;;;;;;;;;7.75;5.75;;;;;10.71;51.27;103050.78;5051416;28;45378;-61
2024/01/31 00:39:28;;;;;;;;;10.00;7.25;;;;;10.65;50.75;103041.78;5039517;28;45500;-66
2024/01/31 00:41:54;;;;;;;;;7.50;7.50;;;;;10.68;50.97;103041.88;5026561;28;46784;-62
2024/01/31 00:44:20;;;;;;;;;5.75;5.75;;;;;10.72;51.00;103051.66;5054292;28;45344;-62
2024/01/31 00:46:48;;;;;;;;;10.00;8.25;;;;;10.66;50.65;103048.84;5058214;28;45415;-60
2024/01/31 00:49:13;;;;;;;;;7.25;7.00;;;;;10.68;51.15;103047.13;5059306;28;45465;-62
2024/01/31 00:51:44;;;;;;;;;12.25;8.25;;;;;10.66;51.25;103041.84;5057710;28;45612;-61
2024/01/31 00:54:10;;;;;;;;;6.75;6.25;;;;;10.60;51.38;103029.38;5039564;28;45490;-66
2024/01/31 00:56:36;;;;;;;;;7.50;5.50;;;;;10.57;51.19;103023.16;5057999;28;45520;-68
2024/01/31 00:59:01;;;;;;;;;9.00;8.25;;;;;10.54;51.11;103016.06;5049556;28;45545;-68
2024/01/31 01:01:27;;;;;;;;;8.50;8.25;;;;;10.60;50.80;103028.50;5058700;28;45473;-67
2024/01/31 01:03:52;;;;;;;;;12.25;11.00;;;;;10.64;51.00;103029.53;5058114;28;45425;-66
2024/01/31 01:06:18;;;;;;;;;9.75;9.75;;;;;10.60;50.62;103029.38;5057817;28;45474;-70
2024/01/31 01:08:43;;;;;;;;;9.75;9.75;;;;;10.56;50.91;103018.75;5058212;28;45515;-63
2024/01/31 01:11:09;;;;;;;;;12.50;9.50;;;;;10.51;50.79;103007.19;5057951;28;46070;-65
2024/01/31 01:13:34;;;;;;;;;8.25;8.25;;;;;10.50;50.81;103010.66;5057749;28;45368;-66
2024/01/31 01:16:00;;;;;;;;;9.00;8.75;;;;;10.55;50.66;103019.56;5057477;28;45268;-67
2024/01/31 01:18:25;;;;;;;;;12.50;11.50;;;;;10.54;50.53;103030.91;5058163;28;45475;-61
2024/01/31 01:20:51;;;;;;;;;11.50;11.25;;;;;10.52;50.59;103024.72;5057598;28;46276;-62
2024/01/31 01:23:16;;;;;;;;;14.25;12.00;;;;;10.53;50.75;103029.09;5058238;28;45411;-61
2024/01/31 01:25:42;;;;;;;;;13.75;13.00;;;;;10.50;50.96;103031.59;5047430;28;45346;-63
2024/01/31 01:28:07;;;;;;;;;12.25;12.25;;;;;10.39;51.10;103021.63;5057719;28;45602;-62
2024/01/31 01:30:33;;;;;;;;;11.50;9.50;;;;;10.32;51.67;103022.19;5057321;28;45668;-62
2024/01/31 01:32:59;;;;;;;;;15.25;11.75;;;;;10.35;51.79;103022.31;5057436;28;45393;-62
2024/01/31 01:35:24;;;;;;;;;12.25;10.50;;;;;10.36;51.57;103026.72;5056096;28;45469;-61
2024/01/31 01:37:50;;;;;;;;;13.75;12.75;;;;;10.33;51.74;103012.63;5057227;28;46216;-62
2024/01/31 01:40:16;;;;;;;;;12.25;10.75;;;;;10.28;51.87;103009.81;5057815;28;46492;-60
2024/01/31 01:42:42;;;;;;;;;18.75;15.75;;;;;10.26;51.93;103018.41;5058922;28;45441;-60
2024/01/31 01:45:08;;;;;;;;;16.25;14.50;;;;;10.21;52.37;103017.34;5058911;28;45386;-60
2024/01/31 01:47:35;;;;;;;;;18.75;15.50;;;;;10.03;52.36;102986.06;5059040;28;45549;-62
2024/01/31 01:50:02;;;;;;;;;9.00;9.00;;;;;10.07;52.28;102998.44;5057563;28;46092;-61
2024/01/31 01:52:30;;;;;;;;;19.50;18.00;;;;;10.18;52.03;103013.75;5057246;28;45481;-61
2024/01/31 01:54:57;;;;;;;;;15.25;12.75;;;;;10.11;51.95;102998.63;5056713;28;45433;-60
2024/01/31 01:57:24;;;;;;;;;15.00;12.25;;;;;10.05;52.21;103014.09;5056966;28;45340;-61
2024/01/31 01:59:50;;;;;;;;;16.75;16.75;;;;;10.12;52.63;103015.22;5056607;28;45337;-61
2024/01/31 02:02:17;;;;;;;;;20.00;17.75;;;;;10.08;52.30;103015.94;5057022;28;45498;-62
2024/01/31 02:04:42;;;;;;;;;21.25;17.25;;;;;10.10;53.05;103019.50;5054684;28;45424;-68
2024/01/31 02:07:08;;;;;;;;;20.00;19.75;;;;;10.04;52.71;103012.31;5058658;28;45291;-68
2024/01/31 02:09:34;;;;;;;;;21.25;18.50;;;;;10.01;52.88;103016.50;5056138;28;46345;-66
2024/01/31 02:12:00;;;;;;;;;22.00;18.50;;;;;10.02;53.03;103013.09;5057222;28;45983;-71
2024/01/31 02:14:26;;;;;;;;;20.50;18.75;;;;;10.00;52.99;102997.31;5057077;28;45405;-65
2024/01/31 02:16:51;;;;;;;;;20.25;18.50;;;;;9.98;52.53;102991.09;5056707;28;45811;-67
2024/01/31 02:19:17;;;;;;;;;17.50;15.75;;;;;10.06;52.74;103012.34;5056510;28;46132;-63
2024/01/31 02:21:46;;;;;;;;;18.75;16.00;;;;;9.97;52.94;102989.34;5056829;28;45399;-61
2024/01/31 02:24:11;;;;;;;;;19.75;18.25;;;;;10.02;52.88;102998.25;5057390;28;45353;-62
2024/01/31 02:26:37;;;;;;;;;19.00;17.50;;;;;9.92;52.81;102990.88;5058208;28;45540;-62
2024/01/31 02:29:03;;;;;;;;;15.75;13.75;;;;;9.96;52.38;102998.88;5057103;28;45537;-59
2024/01/31 02:31:28;;;;;;;;;16.25;14.00;;;;;9.93;53.15;102996.16;5056758;28;46045;-64
2024/01/31 02:33:54;;;;;;;;;18.00;15.50;;;;;9.93;52.90;103006.63;5056086;28;45410;-61
2024/01/31 02:36:19;;;;;;;;;16.00;15.25;;;;;9.91;52.61;102995.19;5056338;28;45621;-65
2024/01/31 02:38:45;;;;;;;;;12.75;12.75;;;;;10.02;53.07;103011.34;5057966;28;46165;-61
2024/01/31 02:41:11;;;;;;;;;17.25;12.75;;;;;9.96;53.18;103001.50;5057262;28;45594;-65
2024/01/31 02:43:36;;;;;;;;;13.00;12.00;;;;;9.99;52.79;103003.38;5056153;28;45384;-62
2024/01/31 02:46:02;;;;;;;;;16.00;15.00;;;;;9.97;53.41;103005.94;5056560;28;45507;-64
2024/01/31 02:48:27;;;;;;;;;15.00;15.00;;;;;9.97;53.06;102997.19;5056046;28;46303;-61
2024/01/31 02:50:53;;;;;;;;;18.00;14.50;;;;;9.94;52.83;102997.97;5054687;28;45391;-68
2024/01/31 02:53:19;;;;;;;;;19.50;17.75;;;;;10.05;52.82;103011.47;5056590;28;45481;-67
2024/01/31 02:55:47;;;;;;;;;13.25;11.50;;;;;10.01;53.22;103009.53;5056403;28;45457;-61
2024/01/31 02:58:12;;;;;;;;;15.25;14.75;;;;;9.91;53.62;103007.41;5037790;28;46897;-62
2024/01/31 03:00:38;;;;;;;;;18.25;17.00;;;;;9.85;53.29;103009.78;5057126;28;45426;-62
2024/01/31 03:03:04;;;;;;;;;16.25;14.00;;;;;9.83;53.53;102998.34;5039404;28;45429;-66
2024/01/31 03:05:29;;;;;;;;;15.25;13.75;;;;;9.91;53.50;103013.50;5054948;28;45580;-61
2024/01/31 03:07:55;;;;;;;;;17.75;14.50;;;;;9.99;53.02;103021.72;5055792;28;45615;-62
2024/01/31 03:10:21;;;;;;;;;14.75;11.00;;;;;9.91;52.87;103016.13;5055668;28;45451;-60
2024/01/31 03:12:46;;;;;;;;;12.25;10.75;;;;;9.95;53.31;103025.03;5057155;28;45460;-62
2024/01/31 03:15:12;;;;;;;;;17.00;12.75;;;;;9.93;52.85;103013.59;5058130;28;45426;-66
2024/01/31 03:17:38;;;;;;;;;12.00;11.75;;;;;9.96;53.21;103022.44;5059684;28;46031;-61
2024/01/31 03:20:05;;;;;;;;;11.00;10.50;;;;;9.95;53.04;103019.78;5059894;28;45579;-65
2024/01/31 03:22:31;;;;;;;;;11.75;11.75;;;;;9.98;52.74;103020.78;5059652;28;45576;-60
2024/01/31 03:24:56;;;;;;;;;11.75;11.75;;;;;9.85;52.63;103004.53;5058407;28;45486;-61
2024/01/31 03:27:22;;;;;;;;;10.00;8.00;;;;;9.96;53.20;103027.69;5041270;28;45856;-60
2024/01/31 03:29:47;;;;;;;;;13.25;11.75;;;;;10.06;52.68;103033.31;5053826;28;45378;-61
2024/01/31 03:32:13;;;;;;;;;11.25;10.00;;;;;10.13;52.85;103032.72;5056613;28;45914;-64
2024/01/31 03:34:41;;;;;;;;;15.25;11.00;;;;;10.15;51.93;103029.31;5059685;28;45290;-60
2024/01/31 03:37:07;;;;;;;;;10.00;10.00;;;;;10.12;51.82;103018.75;5060675;28;46136;-62
2024/01/31 03:39:32;;;;;;;;;15.50;13.50;;;;;10.07;51.87;103019.41;5059651;28;45497;-64
2024/01/31 03:41:58;;;;;;;;;10.75;8.25;;;;;9.97;51.70;103023.38;5041026;28;45535;-67
2024/01/31 03:44:24;;;;;;;;;13.00;11.00;;;;;9.97;51.90;103018.13;5059369;28;45380;-61
2024/01/31 03:46:49;;;;;;;;;7.00;6.00;;;;;10.02;51.50;103032.28;5058619;28;45412;-61
2024/01/31 03:49:15;;;;;;;;;6.50;6.50;;;;;9.85;51.69;103013.28;5059181;28;45352;-63
2024/01/31 03:51:40;;;;;;;;;9.50;9.50;;;;;9.87;51.71;103018.56;5025536;28;45273;-66
2024/01/31 03:54:06;;;;;;;;;7.50;7.50;;;;;9.97;51.35;103033.84;5059521;28;45464;-61
2024/01/31 03:56:32;;;;;;;;;10.25;6.75;;;;;9.92;51.54;103031.03;5058864;28;46081;-60
2024/01/31 03:58:57;;;;;;;;;8.75;7.75;;;;;9.97;51.98;103039.06;5057250;28;45568;-64
2024/01/31 04:01:23;;;;;;;;;9.25;7.75;;;;;9.87;51.99;103021.19;5041947;28;45322;-63
2024/01/31 04:03:48;;;;;;;;;14.25;10.00;;;;;10.04;51.71;103043.72;5058949;28;45478;-65
2024/01/31 04:06:14;;;;;;;;;9.75;7.75;;;;;10.01;52.39;103046.19;5058270;28;45725;-61
2024/01/31 04:08:40;;;;;;;;;8.00;7.00;;;;;10.00;52.36;103052.28;5059364;28;45278;-61
2024/01/31 04:11:06;;;;;;;;;6.00;6.00;;;;;10.04;52.34;103045.47;5040568;28;45354;-62
2024/01/31 04:13:31;;;;;;;;;5.25;5.25;;;;;10.18;52.37;103057.41;5059034;28;45425;-61
2024/01/31 04:15:58;;;;;;;;;10.00;8.00;;;;;10.22;51.19;103056.66;5056823;28;47510;-63
2024/01/31 04:18:24;;;;;;;;;9.50;7.00;;;;;10.19;51.29;103054.81;5060001;28;45386;-61
2024/01/31 04:20:59;;;;;;;;;8.50;7.00;;;;;10.24;50.69;103056.75;5060063;28;45753;-60
2024/01/31 04:23:25;;;;;;;;;9.00;7.00;;;;;10.12;51.01;103046.66;5058807;28;45666;-65
2024/01/31 04:25:51;;;;;;;;;10.00;6.50;;;;;10.04;50.79;103029.75;5059706;28;46563;-63
2024/01/31 04:28:18;;;;;;;;;8.25;7.75;;;;;10.13;51.05;103051.97;5059059;28;45417;-64
2024/01/31 04:30:44;;;;;;;;;7.75;5.50;;;;;10.10;50.89;103043.97;5058333;28;45544;-67
2024/01/31 04:33:10;;;;;;;;;7.00;6.50;;;;;10.07;50.17;103030.75;5040659;28;45644;-69
2024/01/31 04:35:35;;;;;;;;;5.25;5.25;;;;;10.12;50.62;103044.03;5051818;28;46186;-62
2024/01/31 04:38:01;;;;;;;;;5.00;5.00;;;;;10.11;50.64;103043.16;5050893;28;45575;-67
2024/01/31 04:40:26;;;;;;;;;4.00;3.75;;;;;10.13;51.15;103049.34;5045212;28;45931;-64
2024/01/31 04:42:52;;;;;;;;;4.25;4.25;;;;;10.13;50.97;103041.50;5058073;28;45513;-68
2024/01/31 04:45:17;;;;;;;;;6.50;4.75;;;;;10.21;50.63;103056.63;5058873;28;45971;-66
2024/01/31 04:47:43;;;;;;;;;6.75;6.75;;;;;10.21;50.47;103054.00;5057946;28;45490;-62
2024/01/31 04:50:11;;;;;;;;;8.75;5.75;;;;;10.12;50.32;103052.78;5058500;28;45355;-63
2024/01/31 04:52:37;;;;;;;;;7.50;5.50;;;;;10.14;50.56;103047.63;5058399;28;45465;-61
2024/01/31 04:55:04;;;;;;;;;6.75;5.00;;;;;10.11;50.56;103043.16;5057662;28;45427;-66
2024/01/31 04:57:31;;;;;;;;;7.25;6.00;;;;;9.85;50.21;102991.47;5057921;28;45449;-65
2024/01/31 04:59:57;;;;;;;;;8.00;6.50;;;;;10.06;49.94;103036.84;5058721;28;45339;-61
2024/01/31 05:02:22;;;;;;;;;7.25;5.50;;;;;10.04;50.31;103037.59;5059445;28;45380;-62
2024/01/31 05:04:48;;;;;;;;;7.00;5.00;;;;;10.01;49.85;103032.22;5058909;28;46725;-61
2024/01/31 05:07:13;;;;;;;;;6.50;5.00;;;;;10.00;50.18;103028.72;5059048;28;45702;-62
2024/01/31 05:09:39;;;;;;;;;7.75;7.75;;;;;9.94;50.25;103017.97;5058286;28;45443;-67
2024/01/31 05:12:04;;;;;;;;;5.25;5.00;;;;;9.91;49.90;103012.63;5057896;28;45685;-62
2024/01/31 05:14:30;;;;;;;;;8.25;6.75;;;;;9.90;50.53;103016.97;5057657;28;45481;-65
2024/01/31 05:16:55;;;;;;;;;8.00;6.00;;;;;9.75;50.11;103001.53;5058608;28;45432;-67
2024/01/31 05:19:21;;;;;;;;;9.00;7.25;;;;;9.83;50.44;103020.16;5057732;28;45317;-71
2024/01/31 05:21:48;;;;;;;;;9.50;7.50;;;;;9.70;50.88;103002.16;5057656;28;45353;-67
2024/01/31 05:24:14;;;;;;;;;12.00;6.75;;;;;9.73;50.87;103013.66;5057882;28;46424;-61
2024/01/31 05:26:41;;;;;;;;;8.00;8.00;;;;;9.66;51.29;103009.00;5057701;28;45422;-61
2024/01/31 05:29:06;;;;;;;;;11.75;8.25;;;;;9.61;51.45;103001.78;5057257;28;45493;-66
2024/01/31 05:31:32;;;;;;;;;7.00;7.00;;;;;9.48;51.96;103002.97;5057520;28;45424;-63
2024/01/31 05:33:57;;;;;;;;;13.00;9.00;;;;;9.45;52.20;102992.41;5038891;28;45583;-61
2024/01/31 05:36:23;;;;;;;;;7.25;7.25;;;;;9.53;51.89;103019.75;5049445;28;45497;-64
2024/01/31 05:38:49;;;;;;;;;5.25;5.00;;;;;9.50;52.35;103017.03;5039464;28;45358;-69
2024/01/31 05:41:15;;;;;;;;;10.25;8.00;;;;;9.47;52.69;103014.28;5057981;28;45492;-65
2024/01/31 05:43:41;;;;;;;;;7.75;7.75;;;;;9.42;52.94;103015.78;5038816;28;48077;-66
2024/01/31 05:46:07;;;;;;;;;11.50;8.25;;;;;9.39;52.76;103016.56;5057051;28;45570;-70
2024/01/31 05:48:33;;;;;;;;;8.25;8.25;;;;;9.41;52.98;103014.00;5057534;28;45470;-68
2024/01/31 05:50:58;;;;;;;;;10.25;8.25;;;;;9.44;52.98;103016.75;5058192;28;45422;-69
2024/01/31 05:53:24;;;;;;;;;7.75;7.75;;;;;9.45;53.05;103005.47;5056895;28;46061;-70
2024/01/31 05:55:49;;;;;;;;;9.25;6.25;;;;;9.40;53.46;103007.91;5057056;28;45410;-70
2024/01/31 05:58:17;;;;;;;;;11.50;11.50;;;;;9.46;53.24;103002.91;5038793;28;45324;-64
2024/01/31 06:00:44;;;;;;;;;10.50;8.25;;;;;9.41;53.20;103009.66;5057287;28;45498;-65
2024/01/31 06:03:10;;;;;;;;;8.50;8.50;;;;;9.35;53.50;102998.97;5056448;28;45370;-65
2024/01/31 06:05:36;;;;;;;;;13.50;10.75;;;;;9.34;53.98;103005.88;5057494;28;45283;-68
2024/01/31 06:08:02;;;;;;;;;11.25;11.25;;;;;9.29;53.88;102998.69;5037823;28;45771;-65
2024/01/31 06:10:28;;;;;;;;;11.75;8.00;;;;;9.20;54.18;102993.94;5051846;28;45351;-64
2024/01/31 06:12:54;;;;;;;;;15.00;13.00;;;;;9.08;54.31;102988.16;5057032;28;46092;-62
2024/01/31 06:15:20;;;;;;;;;13.25;13.25;;;;;9.15;53.96;102991.97;5048542;28;45508;-63
2024/01/31 06:17:46;;;;;;;;;13.50;11.75;;;;;9.12;53.92;102993.59;5056691;28;46723;-59
2024/01/31 06:20:12;;;;;;;;;12.50;10.00;;;;;9.09;54.41;102995.22;5038586;28;45519;-62
2024/01/31 06:22:38;;;;;;;;;9.50;9.50;;;;;9.03;54.54;102979.25;5057334;28;46319;-63
2024/01/31 06:25:04;;;;;;;;;12.75;9.75;;;;;9.02;54.24;102969.63;5058107;28;45255;-65
2024/01/31 06:27:30;;;;;;;;;16.25;15.00;;;;;9.04;54.57;102981.00;5041097;28;45447;-70
2024/01/31 06:29:56;;;;;;;;;8.00;8.00;;;;;8.99;54.61;102987.75;5045517;28;45568;-62
2024/01/31 06:32:22;;;;;;;;;10.00;9.50;;;;;8.93;54.84;102979.66;5038705;28;45344;-66
2024/01/31 06:34:49;;;;;;;;;15.25;12.00;;;;;9.01;54.74;102992.22;5038909;28;45508;-62
2024/01/31 06:37:17;;;;;;;;;12.25;10.00;;;;;8.94;54.84;102979.72;5047889;28;45291;-63
2024/01/31 06:39:43;;;;;;;;;12.50;11.50;;;;;8.94;55.71;102986.66;5054966;28;45325;-60
2024/01/31 06:42:08;;;;;;;;;13.25;10.75;;;;;8.88;55.11;102962.06;5055076;28;45653;-60
2024/01/31 06:44:34;;;;;;;;;14.00;12.50;;;;;8.92;54.96;102970.91;5048126;28;45520;-61
2024/01/31 06:46:59;;;;;;;;;14.50;13.00;;;;;8.87;55.31;102972.44;5040333;28;45370;-62
2024/01/31 06:49:25;;;;;;;;;16.25;14.50;;;;;8.88;55.51;102985.56;5040097;28;45504;-62
2024/01/31 06:51:51;;;;;;;;;10.50;10.50;;;;;8.83;55.45;102974.03;5052025;28;46019;-62
2024/01/31 06:54:17;;;;;;;;;21.25;16.50;;;;;8.91;55.88;102971.75;5038386;28;45443;-62
2024/01/31 06:56:43;;;;;;;;;14.00;12.75;;;;;9.02;55.64;102972.25;5043600;28;45525;-61
2024/01/31 06:59:09;;;;;;;;;14.00;12.50;;;;;9.10;55.46;102976.06;5054278;28;45501;-64
2024/01/31 07:01:35;;;;;;;;;13.25;12.25;;;;;9.09;55.42;102974.28;5054310;28;45448;-63
2024/01/31 07:04:00;;;;;;;;;18.75;15.25;;;;;9.03;55.07;102987.97;5050576;28;45430;-71
2024/01/31 07:06:26;;;;;;;;;18.75;13.50;;;;;8.98;55.68;102984.25;5055850;28;45512;-66
2024/01/31 07:08:51;;;;;;;;;16.25;14.25;;;;;9.01;55.70;102979.16;5055717;28;45320;-63
2024/01/31 07:11:17;;;;;;;;;21.00;16.00;;;;;8.98;55.87;102989.50;5038056;28;47745;-70
2024/01/31 07:13:43;;;;;;;;;21.75;17.50;;;;;8.93;56.26;102996.22;5056026;28;45457;-65
2024/01/31 07:16:09;;;;;;;;;13.00;12.50;;;;;8.94;56.11;103002.34;5038658;28;45478;-64
2024/01/31 07:18:45;;;;;;;;;18.50;17.25;;;;;8.93;56.14;102988.41;5037699;28;45370;-61
2024/01/31 07:21:11;;;;;;;;;15.25;15.25;;;;;8.98;56.23;102996.44;5055310;28;46794;-64
2024/01/31 07:23:37;;;;;;;;;19.75;17.50;;;;;8.98;56.37;102996.44;5055330;28;45383;-62
2024/01/31 07:26:03;;;;;;;;;20.00;16.75;;;;;9.01;56.02;103005.28;5056547;28;45494;-63
2024/01/31 07:28:38;;;;;;;;;19.25;16.00;;;;;8.70;56.08;102949.03;5055778;28;45260;-62
2024/01/31 07:31:05;;;;;;;;;15.75;15.75;;;;;9.00;55.89;103016.59;5055454;28;46073;-60
2024/01/31 07:33:32;;;;;;;;;16.75;15.00;;;;;9.03;55.81;103016.72;5055475;28;45422;-63
2024/01/31 07:35:57;;;;;;;;;14.50;7.50;;;;;8.98;55.97;103017.34;5055746;28;45500;-62
2024/01/31 07:38:23;;;;;;;;;18.50;15.50;;;;;8.98;56.11;103025.19;5055560;28;45446;-64
2024/01/31 07:40:48;;;;;;;;;15.75;11.75;;;;;9.01;56.16;103023.59;5055894;28;46061;-61
2024/01/31 07:43:14;;;;;;;;;14.50;12.00;;;;;9.04;56.23;103028.06;5055309;28;45292;-62
2024/01/31 07:45:39;;;;;;;;;10.50;9.75;;;;;9.04;56.41;103022.84;5055870;28;45473;-61
2024/01/31 07:48:06;;;;;;;;;9.75;9.75;;;;;9.07;56.14;103017.78;5055040;28;45457;-61
2024/01/31 07:50:31;;;;;;;;;17.75;14.75;;;;;9.10;56.16;103008.31;5048741;28;45579;-62
2024/01/31 07:52:57;;;;;;;;;18.25;16.00;;;;;9.27;56.22;103029.09;5055421;28;45495;-65
2024/01/31 07:55:22;;;;;;;;;17.75;16.75;;;;;9.25;55.96;103036.88;5055910;28;45383;-62
2024/01/31 07:57:48;;;;;;;;;15.50;14.25;;;;;9.24;55.71;103013.28;5037336;28;45726;-62
2024/01/31 08:00:14;;;;;;;;;21.75;17.75;;;;;9.40;55.67;103022.69;5055982;28;46389;-64
2024/01/31 08:02:40;;;;;;;;;17.25;15.50;;;;;9.41;55.47;103024.47;5057138;28;45655;-62
2024/01/31 08:05:06;;;;;;;;;14.50;14.00;;;;;9.28;55.49;102999.53;5057074;28;45420;-63
2024/01/31 08:07:31;;;;;;;;;23.25;20.00;;;;;9.43;55.65;103017.59;5040568;28;45546;-63
2024/01/31 08:09:57;;;;;;;;;20.50;17.00;;;;;9.38;55.82;103011.28;5058276;28;46180;-63
2024/01/31 08:12:22;;;;;;;;;21.25;18.00;;;;;9.37;55.97;103009.47;5040746;28;45407;-62
2024/01/31 08:14:48;;;;;;;;;20.25;17.75;;;;;9.27;56.33;102992.50;5059345;28;45323;-66
2024/01/31 08:17:14;;;;;;;;;18.50;15.75;;;;;9.41;56.08;102999.22;5059690;28;45350;-63
2024/01/31 08:19:39;;;;;;;;;24.75;17.50;;;;;9.45;56.13;103000.25;5058192;28;46569;-64
2024/01/31 08:22:06;;;;;;;;;24.25;18.25;;;;;9.49;58.04;103004.75;5040179;28;45463;-66
2024/01/31 08:24:31;;;;;;;;;23.00;18.00;;;;;9.62;56.92;102999.22;5058535;28;45477;-68
2024/01/31 08:26:57;;;;;;;;;20.00;16.50;;;;;9.77;56.96;102971.09;5059131;28;45374;-61
2024/01/31 08:29:22;;;;;;;;;18.50;15.00;;;;;10.22;56.69;103004.28;5058389;28;45409;-61
2024/01/31 08:31:48;;;;;;;;;21.25;18.00;;;;;10.37;55.02;102981.38;5059064;28;45463;-62
2024/01/31 08:34:14;;;;;;;;;18.00;15.75;;;;;10.75;55.14;103009.88;5058638;28;45538;-65
2024/01/31 08:36:40;;;;;;;;;19.50;17.50;;;;;10.94;53.73;102985.19;5058824;28;45436;-65
2024/01/31 08:39:08;;;;;;;;;20.75;15.50;;;;;11.22;52.90;102979.22;5039446;28;46744;-64
2024/01/31 08:41:34;;;;;;;;;21.75;17.00;;;;;11.66;52.43;103000.84;5058658;28;45730;-63
2024/01/31 08:44:01;;;;;;;;;15.75;14.50;;;;;12.31;51.58;102995.97;5058667;28;45394;-63
2024/01/31 08:46:28;;;;;;;;;16.75;13.75;;;;;12.97;49.79;103013.69;5058629;28;45299;-64
2024/01/31 08:48:54;;;;;;;;;23.00;15.25;;;;;13.17;49.00;103003.75;5058619;28;45567;-63
2024/01/31 08:51:19;;;;;;;;;19.25;15.00;;;;;13.48;48.68;102984.44;5059549;28;45334;-63
2024/01/31 08:53:45;;;;;;;;;16.75;15.50;;;;;14.36;46.50;103011.16;5048057;28;45342;-63
2024/01/31 08:56:10;;;;;;;;;13.00;13.00;;;;;15.12;45.97;102997.81;5041895;28;45482;-62
2024/01/31 08:58:37;;;;;;;;;18.25;15.50;;;;;15.63;44.73;103001.38;5039649;28;46735;-62
2024/01/31 09:01:07;;;;;;;;;16.33;15.67;;;;;16.53;42.76;103002.78;5045579;28;45542;-65
2024/01/31 09:03:34;;;;;;;;;12.00;12.00;;;;;17.25;42.56;103000.16;5044707;28;45265;-67
2024/01/31 09:06:02;;;;;;;;;19.67;16.00;;;;;17.74;40.72;103005.00;5059671;28;45417;-65
2024/01/31 09:08:27;;;;;;;;;14.67;13.33;;;;;18.52;40.00;103016.16;5059160;28;46129;-62
2024/01/31 09:10:53;;;;;;;;;23.33;19.33;;;;;19.07;38.98;103010.22;5058430;28;45441;-65
2024/01/31 09:13:19;;;;;;;;;17.00;14.33;;;;;19.76;38.11;103013.00;5056824;28;45469;-63
2024/01/31 09:15:44;;;;;;;;;13.00;13.00;;;;;20.87;36.76;103010.09;5058181;28;45234;-64
2024/01/31 09:18:10;;;;;;;;;14.67;13.33;;;;;22.14;35.13;103016.28;5057573;28;45329;-64
2024/01/31 09:20:36;;;;;;;;;14.67;14.67;;;;;22.32;34.83;103002.78;5057615;28;45304;-65
2024/01/31 09:23:02;;;;;;;;;14.00;12.33;;;;;21.74;34.10;103008.69;5058525;28;45499;-65
2024/01/31 09:25:27;;;;;;;;;13.67;12.00;;;;;22.37;34.29;103003.59;5056756;28;45371;-64
2024/01/31 09:27:53;;;;;;;;;15.33;14.00;;;;;22.88;32.97;103011.00;5056249;28;46786;-65
2024/01/31 09:30:19;;;;;;;;;14.33;12.67;;;;;23.23;32.65;103002.50;5057443;28;45401;-67
2024/01/31 09:32:44;;;;;;;;;15.00;12.33;;;;;22.89;33.05;102998.53;5057593;28;45363;-63
2024/01/31 09:35:10;;;;;;;;;11.33;11.00;;;;;22.72;32.93;103004.09;5059077;28;45536;-70
2024/01/31 09:37:36;;;;;;;;;13.00;11.00;;;;;21.77;34.66;102993.50;5055741;28;45477;-66
2024/01/31 09:40:01;;;;;;;;;12.00;10.00;;;;;22.06;34.86;102995.00;5057374;28;45648;-66
2024/01/31 09:42:27;;;;;;;;;13.00;13.00;;;;;22.70;33.73;102987.19;5058014;28;45478;-67
2024/01/31 09:44:57;;;;;;;;;11.33;11.00;;;;;23.02;33.05;102978.78;5057067;28;45548;-64
2024/01/31 09:47:27;;;;;;;;;14.33;13.00;;;;;23.75;32.66;102975.84;5056859;28;45565;-68
2024/01/31 09:49:55;;;;;;;;;11.00;11.00;;;;;23.58;32.48;102950.22;5039015;28;45569;-63
2024/01/31 09:52:27;;;;;;;;;11.33;11.00;;;;;23.04;32.73;102971.59;5055489;28;45527;-63
2024/01/31 09:54:57;;;;;;;;;13.67;13.00;;;;;21.71;34.55;102971.34;5057040;28;45445;-62
2024/01/31 09:57:24;;;;;;;;;16.67;13.67;;;;;19.76;37.11;102957.16;5055222;28;46211;-62
2024/01/31 09:59:50;;;;;;;;;13.00;13.00;;;;;19.56;38.03;102967.78;5056723;28;45774;-63
2024/01/31 10:02:17;;;;;;;;;18.67;16.33;;;;;18.77;39.65;102974.75;5057117;28;45270;-63
2024/01/31 10:04:49;;;;;;;;;17.67;15.67;;;;;18.59;40.24;102972.84;5057385;28;45367;-66
2024/01/31 10:07:28;;;;;;;;;16.33;15.33;;;;;19.11;39.98;102963.31;5057011;28;45427;-66
2024/01/31 10:09:54;;;;;;;;;18.67;16.67;;;;;19.26;39.56;102960.66;5056239;28;45343;-67
2024/01/31 10:12:20;;;;;;;;;17.33;16.33;;;;;18.58;40.59;102963.13;5039957;28;45356;-66
2024/01/31 10:14:54;;;;;;;;;19.67;14.00;;;;;18.78;40.48;102962.34;5046732;28;45447;-66
2024/01/31 10:17:21;;;;;;;;;17.67;14.33;;;;;17.94;41.78;102957.50;5056355;28;45499;-65
2024/01/31 10:19:48;;;;;;;;;25.00;20.00;;;;;17.13;43.30;102957.63;5056454;28;45418;-67
2024/01/31 10:22:14;;;;;;;;;21.00;17.67;;;;;17.48;43.67;102955.31;5057232;28;45462;-64
2024/01/31 10:24:40;;;;;;;;;16.67;12.67;;;;;17.27;43.65;102945.41;5057502;28;45532;-63
2024/01/31 10:27:08;;;;;;;;;15.67;13.67;;;;;19.21;41.76;102946.50;5038106;28;47564;-63
2024/01/31 10:29:34;;;;;;;;;20.67;17.33;;;;;18.76;40.97;102948.16;5056499;28;45521;-63
2024/01/31 10:32:01;;;;;;;;;21.33;15.67;;;;;17.65;42.63;102944.84;5057417;28;45288;-63
2024/01/31 10:34:27;;;;;;;;;17.33;17.00;;;;;16.56;44.51;102940.19;5056977;28;45280;-63
2024/01/31 10:36:56;;;;;;;;;23.00;19.00;;;;;15.52;46.64;102936.91;5056281;28;45942;-62
2024/01/31 10:39:22;;;;;;;;;23.00;17.67;;;;;14.77;48.75;102950.50;5055959;28;45480;-62
2024/01/31 10:41:49;;;;;;;;;19.67;14.67;;;;;14.26;50.26;102939.72;5057839;28;46438;-64
2024/01/31 10:44:15;;;;;;;;;18.00;16.67;;;;;13.98;51.55;102942.63;5057401;28;45461;-66
2024/01/31 10:46:43;;;;;;;;;12.67;9.33;;;;;13.85;51.85;102947.56;5055872;28;45600;-64
2024/01/31 10:49:11;;;;;;;;;24.00;14.33;;;;;13.47;54.03;102951.03;5057148;28;45739;-63
2024/01/31 10:51:39;;;;;;;;;20.67;14.67;;;;;13.04;54.50;102947.25;5055514;28;45353;-63
2024/01/31 10:54:06;;;;;;;;;18.67;13.67;;;;;12.90;54.95;102952.13;5056237;28;45291;-63
2024/01/31 10:56:33;;;;;;;;;16.50;16.25;;;;;12.56;56.17;102941.53;5056611;28;46231;-64
2024/01/31 10:59:01;;;;;;;;;16.25;15.25;;;;;12.26;58.05;102940.66;5055248;28;45471;-66
2024/01/31 11:01:30;;;;;;;;;24.00;17.75;;;;;11.86;60.62;102935.84;5056346;28;45616;-62
2024/01/31 11:03:56;;;;;;;;;15.25;13.25;;;;;11.72;60.51;102939.78;5056518;28;45276;-62
2024/01/31 11:06:25;;;;;;;;;17.25;14.00;;;;;11.61;60.99;102934.19;5055848;28;45396;-64
2024/01/31 11:08:51;;;;;;;;;13.50;11.00;;;;;11.61;61.23;102942.94;5055983;28;45532;-63
2024/01/31 11:11:20;;;;;;;;;15.25;14.00;;;;;11.63;62.03;102943.91;5055923;28;45564;-64